Anderson Dam, ID

9:23 PM MST on January 25, 2015 (GMT -0700)
Mountain Home Air Force Base | Change Station
CLOSE
Current Station
Airport
Location: Mountain Home,
Elevation: 2995 ft
Nearby Weather Stations
Active Advisory: Dense Fog Advisory Active Notice: Record Report

Elev 2995 ft 43.04 °N, 115.87 °W | Updated 25 minutes ago

Clear
Clear
31 °F
Feels Like 28 °F
N
4
Wind Variable Wind from WNW

Today
High -- | Low -- °F
--% Chance of Precip.
Yesterday
High -- | Low -- °F
Precip. -- in
8:05 AM 5:45 PM
Waxing Crescent, 39% visible
Pressure 30.50 in
Visibility 10.0 miles
Clouds Clear
Windchill 28 °F
Dew Point 30 °F
Humidity 94%
Rainfall 0.00 in
Snow Depth Not available.
UV 0 out of 12
Pollen .30 out of 12
Air Quality Not available.
Flu Activity Not available.
METAR KMUO 260358Z AUTO 29003KT 10SM CLR 00/M01 A3042 RMK AO2 SLP328 T10051013

More Conditions Fewer Conditions

Pressure 30.50 in
Visibility 10.0 miles
Clouds Clear
Windchill 28 °F
Dew Point 30 °F
Humidity 94%
Rainfall 0.00 in
Snow Depth Not available.
UV 0 out of 12
Pollen .30 out of 12
Air Quality Not available.
Flu Activity Not available.
METAR KMUO 260358Z AUTO 29003KT 10SM CLR 00/M01 A3042 RMK AO2 SLP328 T10051013

More Conditions Fewer Conditions

10-Day Weather Forecast

Almanac

Astronomy

Jan. 25, 2015 Rise Set
Actual Time
Civil Twilight
Nautical Twilight
Astronomical Twilight
Moon
Length of Visible Light
Length of Day
Tomorrow will be .
, % of the Moon is Illuminated

Today's Extremes

State Highs State Lows

Community

WunderPhotos

Upload Photos

1,790,135 photos uploaded!

WunderBlogs® & News

Nearby

Air Quality

  Air Quality AQ Index Pollutant
Not available.

Snow Depth

Station Depth Elevation

Earthquake Activity

City Distance Mag. Time & Date
Minimum magnitude displayed is 2.5.

Coastal Water Temperatures

Place Temperature

Nearby Weather Stations